createdAt,value
2023-01-23T00:00:32.677Z,20.7
2023-01-23T00:01:35.208Z,20.6
2023-01-23T00:02:37.487Z,20.6
2023-01-23T00:03:40.271Z,20.7
2023-01-23T00:04:42.791Z,20.7
2023-01-23T00:05:45.038Z,20.5
2023-01-23T00:06:47.534Z,20.4
2023-01-23T00:07:50.035Z,20.7
2023-01-23T00:08:52.317Z,20.5
2023-01-23T00:09:54.839Z,20.4
2023-01-23T00:10:57.071Z,20.7
2023-01-23T00:11:59.163Z,20.6
2023-01-23T00:13:04.625Z,20.7
2023-01-23T00:14:06.779Z,20.7
2023-01-23T00:15:09.552Z,20.5
2023-01-23T00:16:12.158Z,20.8
2023-01-23T00:17:14.616Z,20.6
2023-01-23T00:18:17.106Z,20.8
2023-01-23T00:19:19.034Z,20.8
2023-01-23T00:20:21.758Z,20.5
2023-01-23T00:21:24.485Z,20.6
2023-01-23T00:22:27.009Z,20.7
2023-01-23T00:23:29.503Z,20.7
2023-01-23T00:24:32.007Z,20.6
2023-01-23T00:25:33.980Z,20.8
2023-01-23T00:26:36.479Z,20.6
2023-01-23T00:27:39.114Z,20.5
2023-01-23T00:28:41.332Z,20.7
2023-01-23T00:29:44.066Z,20.6
2023-01-23T00:30:46.875Z,20.7
2023-01-23T00:31:49.753Z,20.5
2023-01-23T00:32:52.209Z,20.6
2023-01-23T00:33:54.455Z,20.6
2023-01-23T00:34:56.427Z,20.7
2023-01-23T00:35:58.655Z,20.7
2023-01-23T00:37:01.153Z,20.7
2023-01-23T00:38:03.674Z,20.7
2023-01-23T00:39:06.432Z,20.8
2023-01-23T00:40:08.959Z,20.7
2023-01-23T00:41:11.483Z,20.8
2023-01-23T00:42:13.993Z,20.9
2023-01-23T00:43:16.322Z,20.8
2023-01-23T00:44:18.334Z,20.8
2023-01-23T00:45:20.777Z,20.8
2023-01-23T00:46:23.581Z,20.8
2023-01-23T00:47:26.224Z,20.8
2023-01-23T00:48:28.447Z,20.9
2023-01-23T00:49:30.973Z,20.8
2023-01-23T00:50:33.226Z,20.8
2023-01-23T00:51:35.734Z,20.6
2023-01-23T00:52:38.233Z,20.8
2023-01-23T00:53:40.727Z,20.8
2023-01-23T00:54:43.242Z,20.9
2023-01-23T00:55:45.768Z,20.8
2023-01-23T00:56:47.719Z,20.8
2023-01-23T00:57:50.236Z,20.9
2023-01-23T00:58:52.850Z,20.8
2023-01-23T00:59:55.398Z,20.8
2023-01-23T01:00:58.132Z,20.8
2023-01-23T01:02:00.951Z,20.8
2023-01-23T01:03:03.953Z,20.8
2023-01-23T01:04:06.671Z,20.8
2023-01-23T01:05:08.931Z,20.9
2023-01-23T01:06:11.491Z,21
2023-01-23T01:07:13.738Z,20.7
2023-01-23T01:08:15.983Z,20.9
2023-01-23T01:09:18.476Z,21.1
2023-01-23T01:10:21.281Z,20.9
2023-01-23T01:11:23.898Z,21
2023-01-23T01:12:26.380Z,20.9
2023-01-23T01:13:28.636Z,20.8
2023-01-23T01:14:31.237Z,20.9
2023-01-23T01:15:33.735Z,20.8
2023-01-23T01:16:36.373Z,20.9
2023-01-23T01:17:39.122Z,21
2023-01-23T01:18:41.664Z,20.9
2023-01-23T01:19:43.874Z,21
2023-01-23T01:20:46.132Z,21
2023-01-23T01:21:48.664Z,20.8
2023-01-23T01:22:50.939Z,20.8
2023-01-23T01:23:53.465Z,20.8
2023-01-23T01:24:56.017Z,20.9
2023-01-23T01:25:58.543Z,20.8
2023-01-23T01:27:00.787Z,21
2023-01-23T01:28:03.358Z,21
2023-01-23T01:29:05.587Z,20.8
2023-01-23T01:30:07.933Z,20.9
2023-01-23T01:31:10.243Z,21
2023-01-23T01:32:13.308Z,20.9
2023-01-23T01:33:16.056Z,21
2023-01-23T01:34:18.544Z,20.9
2023-01-23T01:35:25.020Z,20.9
2023-01-23T01:36:27.563Z,20.9
2023-01-23T01:37:29.794Z,21
2023-01-23T01:38:32.295Z,21
2023-01-23T01:39:34.265Z,21
2023-01-23T01:40:36.498Z,20.9
2023-01-23T01:41:38.517Z,20.8
2023-01-23T01:42:40.732Z,21
2023-01-23T01:43:43.269Z,20.9
2023-01-23T01:44:45.766Z,21
2023-01-23T01:45:48.504Z,21
2023-01-23T01:46:51.111Z,21.1
2023-01-23T01:47:54.252Z,21
2023-01-23T01:48:56.981Z,21
2023-01-23T01:49:59.263Z,21
2023-01-23T01:51:01.743Z,21
2023-01-23T01:52:04.414Z,21
2023-01-23T01:53:06.645Z,21
2023-01-23T01:54:09.129Z,21
2023-01-23T01:55:11.361Z,21
2023-01-23T01:56:13.576Z,20.9
2023-01-23T01:57:16.113Z,21
2023-01-23T01:58:18.625Z,21
2023-01-23T01:59:21.167Z,21
2023-01-23T02:00:23.673Z,20.9
2023-01-23T02:01:26.498Z,20.9
2023-01-23T02:02:28.996Z,21
2023-01-23T02:03:31.756Z,21.1
2023-01-23T02:04:34.489Z,21
2023-01-23T02:05:36.971Z,21.1
2023-01-23T02:06:39.510Z,20.9
2023-01-23T02:07:42.020Z,21
2023-01-23T02:08:43.985Z,21.1
2023-01-23T02:09:46.507Z,21
2023-01-23T02:10:48.531Z,21
2023-01-23T02:11:50.761Z,21
2023-01-23T02:12:53.338Z,21
2023-01-23T02:13:55.326Z,21
2023-01-23T02:14:57.557Z,21.1
2023-01-23T02:15:59.812Z,21.1
2023-01-23T02:17:02.405Z,21.1
2023-01-23T02:18:04.920Z,21
2023-01-23T02:19:07.667Z,21.1
2023-01-23T02:20:10.591Z,21
2023-01-23T02:21:12.935Z,21
2023-01-23T02:22:15.279Z,21
2023-01-23T02:23:17.506Z,21
2023-01-23T02:24:20.013Z,21.1
2023-01-23T02:25:22.244Z,21
2023-01-23T02:26:24.560Z,21.1
2023-01-23T02:27:27.077Z,21.1
2023-01-23T02:28:29.572Z,20.9
2023-01-23T02:29:32.060Z,21.1
2023-01-23T02:30:34.311Z,21.1
2023-01-23T02:31:36.886Z,21.1
2023-01-23T02:32:39.943Z,21.1
2023-01-23T02:33:42.438Z,21.1
2023-01-23T02:34:44.893Z,21.2
2023-01-23T02:35:47.650Z,21
2023-01-23T02:36:49.895Z,21.2
2023-01-23T02:37:51.860Z,21
2023-01-23T02:38:54.358Z,21.1
2023-01-23T02:39:56.886Z,21.1
2023-01-23T02:40:59.144Z,21.2
2023-01-23T02:42:01.635Z,21
2023-01-23T02:43:03.921Z,21.1
2023-01-23T02:44:06.465Z,21.1
2023-01-23T02:45:08.962Z,21.1
2023-01-23T02:46:11.247Z,21.1
2023-01-23T02:47:13.891Z,21.1
2023-01-23T02:48:16.508Z,21.1
2023-01-23T02:49:18.765Z,21.1
2023-01-23T02:50:21.699Z,21.1
2023-01-23T02:51:24.528Z,21.1
2023-01-23T02:52:27.000Z,21.2
2023-01-23T02:53:29.486Z,21.1
2023-01-23T02:54:32.021Z,21.1
2023-01-23T02:55:34.548Z,21
2023-01-23T02:56:37.053Z,21.1
2023-01-23T02:57:39.554Z,21.2
2023-01-23T02:58:42.053Z,21.1
2023-01-23T02:59:44.237Z,21.1
2023-01-23T03:00:46.905Z,21.2
2023-01-23T03:01:49.486Z,21.1
2023-01-23T03:02:52.137Z,21
2023-01-23T03:03:54.466Z,21
2023-01-23T03:04:56.968Z,21
2023-01-23T03:05:59.421Z,21.1
2023-01-23T03:07:02.178Z,21.1
2023-01-23T03:08:04.724Z,21.2
2023-01-23T03:09:06.930Z,21
2023-01-23T03:10:09.195Z,21.1
2023-01-23T03:11:11.751Z,21.1
2023-01-23T03:12:14.266Z,21
2023-01-23T03:13:16.772Z,21
2023-01-23T03:14:19.010Z,21.1
2023-01-23T03:15:21.525Z,21
2023-01-23T03:16:23.808Z,21
2023-01-23T03:17:26.567Z,21
2023-01-23T03:18:29.061Z,21
2023-01-23T03:19:31.404Z,21.1
2023-01-23T03:20:33.991Z,21.1
2023-01-23T03:21:36.476Z,21
2023-01-23T03:22:39.242Z,21
2023-01-23T03:23:41.759Z,21
2023-01-23T03:24:43.987Z,21.1
2023-01-23T03:25:45.946Z,21
2023-01-23T03:26:48.200Z,21
2023-01-23T03:27:50.731Z,21
2023-01-23T03:28:53.229Z,21
2023-01-23T03:29:55.439Z,21
2023-01-23T03:30:57.937Z,20.9
2023-01-23T03:32:00.125Z,21.1
2023-01-23T03:33:02.608Z,20.9
2023-01-23T03:34:03.996Z,21.2
2023-01-23T03:35:06.717Z,21
2023-01-23T03:36:12.079Z,21.2
2023-01-23T03:37:14.191Z,21
2023-01-23T03:38:17.148Z,21
2023-01-23T03:39:19.656Z,21.1
2023-01-23T03:40:22.266Z,21.1
2023-01-23T03:41:24.907Z,21.1
2023-01-23T03:42:27.158Z,21
2023-01-23T03:43:29.675Z,21.1
2023-01-23T03:44:32.160Z,21
2023-01-23T03:45:34.726Z,21
2023-01-23T03:46:37.485Z,21
2023-01-23T03:47:39.988Z,21.1
2023-01-23T03:48:42.486Z,21
2023-01-23T03:49:44.732Z,21.1
2023-01-23T03:50:47.381Z,20.9
2023-01-23T03:51:49.808Z,21.1
2023-01-23T03:52:52.594Z,21.1
2023-01-23T03:53:55.475Z,21
2023-01-23T03:54:57.968Z,21.1
2023-01-23T03:56:00.502Z,21.1
2023-01-23T03:57:02.173Z,21.2
2023-01-23T03:58:04.374Z,21.1
2023-01-23T03:59:06.889Z,21.2
2023-01-23T04:00:09.382Z,21
2023-01-23T04:01:11.160Z,21
2023-01-23T04:02:13.771Z,21
2023-01-23T04:03:16.388Z,21
2023-01-23T04:04:18.612Z,21.1
2023-01-23T04:05:20.826Z,21.1
2023-01-23T04:06:23.549Z,21.2
2023-01-23T04:07:26.051Z,21.2
2023-01-23T04:08:28.572Z,21.1
2023-01-23T04:09:31.555Z,21.1
2023-01-23T04:10:33.555Z,21.1
2023-01-23T04:11:35.771Z,21.1
2023-01-23T04:12:38.269Z,21
2023-01-23T04:13:40.502Z,21.1
2023-01-23T04:14:42.722Z,21
2023-01-23T04:15:45.236Z,21
2023-01-23T04:16:47.525Z,21
2023-01-23T04:17:50.341Z,21.1
2023-01-23T04:18:52.624Z,21.2
2023-01-23T04:19:55.139Z,21.1
2023-01-23T04:20:57.343Z,21
2023-01-23T04:21:59.425Z,20.9
2023-01-23T04:23:01.967Z,20.9
2023-01-23T04:24:04.260Z,21.1
2023-01-23T04:25:07.240Z,21
2023-01-23T04:26:09.752Z,20.9
2023-01-23T04:27:11.985Z,21
2023-01-23T04:28:14.223Z,20.9
2023-01-23T04:29:16.735Z,21
2023-01-23T04:30:19.561Z,20.9
2023-01-23T04:31:23.684Z,20.8
2023-01-23T04:32:26.861Z,20.9
2023-01-23T04:33:29.364Z,21
2023-01-23T04:34:31.899Z,21
2023-01-23T04:35:34.392Z,21.1
2023-01-23T04:36:37.098Z,21
2023-01-23T04:37:39.510Z,20.9
2023-01-23T04:38:42.075Z,20.9
2023-01-23T04:39:44.636Z,20.8
2023-01-23T04:40:47.831Z,21
2023-01-23T04:41:50.134Z,20.9
2023-01-23T04:42:52.726Z,20.8
2023-01-23T04:43:55.232Z,20.8
2023-01-23T04:44:57.853Z,20.9
2023-01-23T04:46:00.193Z,20.7
2023-01-23T04:47:02.620Z,20.9
2023-01-23T04:48:05.133Z,21
2023-01-23T04:49:07.624Z,21
2023-01-23T04:50:10.140Z,20.8
2023-01-23T04:51:12.187Z,21
2023-01-23T04:52:15.093Z,20.9
2023-01-23T04:53:17.702Z,20.9
2023-01-23T04:54:20.244Z,20.9
2023-01-23T04:55:22.927Z,20.8
2023-01-23T04:56:25.947Z,20.6
2023-01-23T04:57:28.455Z,20.9
2023-01-23T04:58:30.981Z,20.7
2023-01-23T04:59:33.222Z,20.9
2023-01-23T05:00:35.749Z,20.7
2023-01-23T05:01:38.004Z,20.8
2023-01-23T05:02:40.908Z,20.8
2023-01-23T05:03:43.618Z,20.9
2023-01-23T05:04:46.128Z,20.8
2023-01-23T05:05:48.735Z,20.7
2023-01-23T05:06:51.238Z,20.8
2023-01-23T05:07:53.765Z,20.7
2023-01-23T05:08:56.126Z,20.7
2023-01-23T05:09:58.047Z,20.9
2023-01-23T05:11:00.285Z,20.8
2023-01-23T05:12:03.023Z,20.8
2023-01-23T05:13:05.515Z,20.7
2023-01-23T05:14:07.461Z,20.7
2023-01-23T05:15:09.655Z,21
2023-01-23T05:16:12.160Z,20.8
2023-01-23T05:17:14.403Z,20.7
2023-01-23T05:18:16.903Z,20.8
2023-01-23T05:19:19.420Z,20.8
2023-01-23T05:20:21.882Z,20.7
2023-01-23T05:21:24.566Z,20.9
2023-01-23T05:22:26.803Z,20.9
2023-01-23T05:23:29.307Z,20.8
2023-01-23T05:24:31.632Z,20.8
2023-01-23T05:25:33.574Z,20.7
2023-01-23T05:26:36.071Z,20.9
2023-01-23T05:27:39.137Z,20.8
2023-01-23T05:28:41.666Z,20.9
2023-01-23T05:29:43.930Z,21
2023-01-23T05:30:46.480Z,20.7
2023-01-23T05:31:48.923Z,20.6
2023-01-23T05:32:51.932Z,20.7
2023-01-23T05:33:53.618Z,20.8
2023-01-23T05:34:56.149Z,20.7
2023-01-23T05:35:58.368Z,20.8
2023-01-23T05:37:00.915Z,20.7
2023-01-23T05:38:03.407Z,20.8
2023-01-23T05:39:05.635Z,20.7
2023-01-23T05:40:08.274Z,20.7
2023-01-23T05:41:10.839Z,20.9
2023-01-23T05:42:13.352Z,20.8
2023-01-23T05:43:16.339Z,20.7
2023-01-23T05:44:18.881Z,20.7
2023-01-23T05:45:21.118Z,20.6
2023-01-23T05:46:23.687Z,20.6
2023-01-23T05:47:26.235Z,21
2023-01-23T05:48:28.774Z,20.7
2023-01-23T05:49:31.311Z,20.8
2023-01-23T05:50:34.584Z,20.8
2023-01-23T05:51:36.315Z,20.8
2023-01-23T05:52:38.545Z,20.7
2023-01-23T05:53:40.852Z,20.7
2023-01-23T05:54:43.057Z,20.7
2023-01-23T05:55:45.718Z,20.6
2023-01-23T05:56:48.308Z,20.7
2023-01-23T05:57:50.862Z,20.6
2023-01-23T05:58:53.863Z,20.6
2023-01-23T05:59:56.353Z,20.6
2023-01-23T06:00:58.578Z,20.4
2023-01-23T06:02:01.113Z,20.8
2023-01-23T06:03:03.041Z,20.6
2023-01-23T06:04:05.328Z,20.8
2023-01-23T06:05:07.876Z,20.7
2023-01-23T06:06:10.376Z,20.7
2023-01-23T06:07:12.621Z,20.6
2023-01-23T06:08:14.844Z,20.6
2023-01-23T06:09:17.069Z,20.8
2023-01-23T06:10:19.950Z,20.6
2023-01-23T06:11:23.470Z,20.7
2023-01-23T06:12:25.967Z,20.6
2023-01-23T06:13:28.475Z,20.6
2023-01-23T06:14:31.686Z,20.6
2023-01-23T06:15:33.733Z,20.6
2023-01-23T06:16:36.186Z,20.7
2023-01-23T06:17:38.761Z,20.8
2023-01-23T06:18:41.253Z,20.8
2023-01-23T06:19:43.739Z,20.6
2023-01-23T06:20:46.030Z,20.7
2023-01-23T06:21:48.593Z,20.7
2023-01-23T06:22:50.537Z,20.9
2023-01-23T06:23:52.499Z,20.8
2023-01-23T06:24:55.005Z,20.7
2023-01-23T06:25:57.520Z,20.5
2023-01-23T06:27:00.148Z,20.7
2023-01-23T06:28:02.637Z,20.7
2023-01-23T06:29:05.157Z,20.7
2023-01-23T06:30:08.181Z,20.7
2023-01-23T06:31:10.875Z,20.8
2023-01-23T06:32:14.040Z,20.8
2023-01-23T06:33:16.542Z,20.7
2023-01-23T06:34:19.052Z,20.6
2023-01-23T06:35:21.846Z,20.8
2023-01-23T06:36:24.876Z,20.9
2023-01-23T06:37:27.106Z,20.8
2023-01-23T06:38:29.630Z,20.7
2023-01-23T06:39:31.921Z,20.6
2023-01-23T06:40:34.464Z,20.9
2023-01-23T06:41:36.965Z,20.7
2023-01-23T06:42:39.314Z,20.6
2023-01-23T06:43:41.856Z,20.9
2023-01-23T06:44:44.103Z,21
2023-01-23T06:45:47.170Z,20.9
2023-01-23T06:46:49.541Z,20.6
2023-01-23T06:47:52.165Z,20.8
2023-01-23T06:48:54.679Z,20.7
2023-01-23T06:49:57.184Z,20.8
2023-01-23T06:50:59.225Z,20.5
2023-01-23T06:52:02.006Z,20.8
2023-01-23T06:53:04.278Z,20.7
2023-01-23T06:54:06.495Z,20.9
2023-01-23T06:55:09.011Z,20.7
2023-01-23T06:56:11.257Z,20.7
2023-01-23T06:57:13.781Z,20.7
2023-01-23T06:58:16.427Z,20.7
2023-01-23T06:59:18.931Z,21
2023-01-23T07:00:21.718Z,20.6
2023-01-23T07:01:25.270Z,20.9
2023-01-23T07:02:28.122Z,20.7
2023-01-23T07:03:30.955Z,20.8
2023-01-23T07:04:33.479Z,20.8
2023-01-23T07:05:35.436Z,20.6
2023-01-23T07:06:37.948Z,20.8
2023-01-23T07:07:40.483Z,20.6
2023-01-23T07:08:42.464Z,20.9
2023-01-23T07:09:44.713Z,20.6
2023-01-23T07:10:47.253Z,20.8
2023-01-23T07:11:49.189Z,20.9
2023-01-23T07:12:51.448Z,20.7
2023-01-23T07:13:54.063Z,21
2023-01-23T07:14:56.569Z,20.7
2023-01-23T07:15:58.532Z,20.8
2023-01-23T07:17:01.697Z,20.7
2023-01-23T07:18:04.218Z,20.9
2023-01-23T07:19:06.471Z,20.8
2023-01-23T07:20:08.725Z,20.8
2023-01-23T07:21:11.296Z,20.8
2023-01-23T07:22:13.807Z,20.6
2023-01-23T07:23:15.818Z,20.7
2023-01-23T07:24:17.758Z,20.6
2023-01-23T07:25:20.061Z,20.9
2023-01-23T07:26:22.586Z,20.8
2023-01-23T07:27:24.796Z,20.6
2023-01-23T07:28:27.061Z,20.7
2023-01-23T07:29:29.472Z,20.8
2023-01-23T07:30:32.049Z,20.6
2023-01-23T07:31:34.974Z,20.7
2023-01-23T07:32:38.256Z,20.9
2023-01-23T07:33:40.494Z,20.8
2023-01-23T07:34:43.073Z,20.6
2023-01-23T07:35:45.589Z,20.8
2023-01-23T07:36:47.801Z,20.7
2023-01-23T07:37:50.041Z,20.7
2023-01-23T07:38:52.572Z,20.7
2023-01-23T07:39:54.289Z,20.6
2023-01-23T07:40:56.808Z,20.5
2023-01-23T07:41:59.338Z,20.7
2023-01-23T07:43:01.853Z,20.7
2023-01-23T07:44:04.350Z,20.7
2023-01-23T07:45:06.775Z,20.9
2023-01-23T07:46:09.383Z,20.5
2023-01-23T07:47:12.285Z,20.8
2023-01-23T07:48:15.157Z,20.8
2023-01-23T07:49:16.827Z,20.7
2023-01-23T07:50:19.417Z,20.7
2023-01-23T07:51:23.845Z,20.8
2023-01-23T07:52:26.743Z,20.8
2023-01-23T07:53:28.989Z,20.8
2023-01-23T07:54:30.987Z,20.5
2023-01-23T07:55:33.347Z,20.5
2023-01-23T07:56:35.566Z,20.6
2023-01-23T07:57:37.811Z,20.5
2023-01-23T07:58:40.316Z,20.8
2023-01-23T07:59:42.252Z,20.7
2023-01-23T08:00:44.929Z,20.7
2023-01-23T08:01:47.715Z,20.5
2023-01-23T08:02:49.698Z,20.6
2023-01-23T08:03:52.702Z,20.7
2023-01-23T08:04:55.656Z,20.7
2023-01-23T08:05:58.214Z,20.8
2023-01-23T08:07:00.458Z,20.7
2023-01-23T08:08:12.930Z,20.6
2023-01-23T08:09:07.982Z,20.7
2023-01-23T08:10:10.561Z,20.5
2023-01-23T08:11:12.585Z,20.6
2023-01-23T08:12:15.196Z,20.8
2023-01-23T08:13:17.731Z,20.6
2023-01-23T08:14:20.256Z,20.6
2023-01-23T08:15:22.819Z,20.6
2023-01-23T08:16:25.348Z,20.6
2023-01-23T08:17:28.206Z,20.7
2023-01-23T08:18:30.740Z,20.6
2023-01-23T08:19:33.759Z,20.6
2023-01-23T08:20:35.789Z,20.7
2023-01-23T08:21:38.094Z,20.8
2023-01-23T08:22:40.599Z,20.6
2023-01-23T08:23:43.115Z,20.8
2023-01-23T08:24:45.063Z,20.7
2023-01-23T08:25:49.353Z,20.8
2023-01-23T08:26:52.608Z,20.5
2023-01-23T08:27:55.124Z,20.6
2023-01-23T08:28:57.636Z,20.5
2023-01-23T08:29:59.918Z,20.7
2023-01-23T08:31:04.293Z,20.7
2023-01-23T08:32:07.610Z,20.6
2023-01-23T08:33:10.527Z,20.8
2023-01-23T08:34:13.024Z,20.7
2023-01-23T08:35:16.042Z,20.5
2023-01-23T08:36:18.024Z,20.8
2023-01-23T08:37:20.889Z,20.7
2023-01-23T08:38:23.403Z,20.6
2023-01-23T08:39:25.935Z,20.5
2023-01-23T08:40:27.902Z,20.6
2023-01-23T08:41:30.418Z,20.5
2023-01-23T08:42:32.671Z,20.7
2023-01-23T08:43:35.159Z,20.6
2023-01-23T08:44:37.697Z,20.6
2023-01-23T08:45:40.235Z,20.7
2023-01-23T08:46:42.750Z,20.7
2023-01-23T08:47:45.118Z,20.5
2023-01-23T08:48:47.395Z,20.7
2023-01-23T08:49:49.919Z,20.6
2023-01-23T08:50:53.004Z,20.7
2023-01-23T08:51:55.691Z,20.4
2023-01-23T08:52:58.197Z,20.8
2023-01-23T08:54:00.699Z,20.7
2023-01-23T08:55:02.985Z,20.8
2023-01-23T08:56:05.221Z,20.8
2023-01-23T08:57:07.752Z,20.7
2023-01-23T08:58:09.452Z,20.5
2023-01-23T08:59:11.404Z,20.5
2023-01-23T09:00:13.634Z,20.8
2023-01-23T09:01:16.190Z,20.8
2023-01-23T09:02:19.104Z,20.5
2023-01-23T09:03:21.426Z,20.8
2023-01-23T09:04:23.399Z,20.5
2023-01-23T09:05:25.396Z,20.8
2023-01-23T09:06:28.006Z,20.7
2023-01-23T09:07:30.523Z,20.6
2023-01-23T09:08:33.687Z,20.5
2023-01-23T09:09:38.168Z,20.5
2023-01-23T09:10:39.852Z,20.8
2023-01-23T09:11:42.351Z,20.7
2023-01-23T09:12:44.582Z,20.7
2023-01-23T09:13:46.848Z,20.6
2023-01-23T09:14:49.135Z,20.7
2023-01-23T09:15:50.823Z,20.5
2023-01-23T09:16:53.217Z,20.6
2023-01-23T09:17:55.923Z,20.6
2023-01-23T09:18:58.590Z,20.7
2023-01-23T09:20:01.162Z,20.8
2023-01-23T09:21:03.483Z,20.7
2023-01-23T09:22:10.188Z,20.6
2023-01-23T09:23:12.704Z,20.6
2023-01-23T09:24:15.253Z,20.8
2023-01-23T09:25:17.790Z,20.6
2023-01-23T09:26:20.347Z,20.6
2023-01-23T09:27:22.953Z,20.5
2023-01-23T09:28:25.166Z,20.4
2023-01-23T09:29:27.717Z,20.5
2023-01-23T09:30:30.263Z,20.7
2023-01-23T09:31:32.566Z,20.5
2023-01-23T09:32:34.761Z,20.6
2023-01-23T09:33:37.272Z,20.6
2023-01-23T09:34:39.629Z,20.6
2023-01-23T09:35:42.154Z,20.7
2023-01-23T09:36:44.509Z,20.8
2023-01-23T09:37:47.465Z,20.6
2023-01-23T09:38:50.019Z,20.7
2023-01-23T09:39:52.539Z,20.6
2023-01-23T09:40:54.788Z,20.5
2023-01-23T09:41:57.044Z,20.6
2023-01-23T09:42:59.594Z,20.7
2023-01-23T09:44:01.841Z,20.6
2023-01-23T09:45:04.086Z,20.5
2023-01-23T09:46:06.460Z,20.8
2023-01-23T09:47:09.316Z,20.6
2023-01-23T09:48:11.866Z,20.7
2023-01-23T09:49:14.084Z,20.6
2023-01-23T09:50:16.435Z,20.7
2023-01-23T09:51:19.273Z,20.7
2023-01-23T09:52:21.711Z,20.5
2023-01-23T09:53:24.710Z,20.6
2023-01-23T09:54:26.944Z,20.7
2023-01-23T09:55:28.919Z,20.5
2023-01-23T09:56:31.143Z,20.6
2023-01-23T09:57:33.374Z,20.6
2023-01-23T09:58:35.873Z,20.5
2023-01-23T09:59:47.257Z,20.6
2023-01-23T10:00:43.396Z,20.7
2023-01-23T10:01:45.989Z,20.7
2023-01-23T10:02:48.572Z,20.5
2023-01-23T10:03:51.399Z,20.7
2023-01-23T10:04:54.033Z,20.4
2023-01-23T10:05:56.442Z,20.5
2023-01-23T10:06:58.959Z,20.4
2023-01-23T10:08:01.850Z,20.6
2023-01-23T10:09:04.814Z,20.5
2023-01-23T10:10:07.288Z,20.7
2023-01-23T10:11:09.518Z,20.6
2023-01-23T10:12:11.728Z,20.7
2023-01-23T10:13:16.402Z,20.4
2023-01-23T10:14:18.998Z,20.6
2023-01-23T10:15:21.903Z,20.7
2023-01-23T10:16:24.441Z,20.5
2023-01-23T10:17:27.164Z,20.4
2023-01-23T10:18:29.439Z,20.6
2023-01-23T10:19:31.692Z,20.6
2023-01-23T10:20:33.915Z,20.4
2023-01-23T10:21:35.753Z,20.4
2023-01-23T10:22:37.990Z,20.5
2023-01-23T10:23:39.918Z,20.4
2023-01-23T10:24:45.340Z,20.6
2023-01-23T10:25:47.834Z,20.5
2023-01-23T10:26:50.408Z,20.7
2023-01-23T10:27:53.013Z,20.5
2023-01-23T10:28:55.609Z,20.5
2023-01-23T10:29:58.248Z,20.6
2023-01-23T10:31:00.623Z,20.6
2023-01-23T10:32:03.450Z,20.5
2023-01-23T10:33:05.953Z,20.6
2023-01-23T10:34:08.192Z,20.6
2023-01-23T10:35:09.889Z,20.6
2023-01-23T10:36:12.506Z,20.8
2023-01-23T10:37:19.365Z,20.6
2023-01-23T10:38:21.600Z,20.7
2023-01-23T10:39:24.123Z,20.5
2023-01-23T10:40:27.094Z,20.6
2023-01-23T10:41:29.362Z,20.5
2023-01-23T10:42:31.682Z,20.5
2023-01-23T10:43:34.192Z,20.4
2023-01-23T10:44:36.712Z,20.4
2023-01-23T10:45:39.239Z,20.5
2023-01-23T10:46:41.219Z,20.7
2023-01-23T10:47:43.499Z,20.5
2023-01-23T10:48:49.568Z,20.5
2023-01-23T10:49:52.099Z,20.4
2023-01-23T10:50:54.440Z,20.6
2023-01-23T10:51:57.099Z,20.7
2023-01-23T10:52:59.653Z,20.6
2023-01-23T10:54:06.093Z,20.7
2023-01-23T10:55:06.854Z,20.6
2023-01-23T10:56:09.939Z,20.7
2023-01-23T10:57:12.041Z,20.7
2023-01-23T10:58:14.327Z,20.5
2023-01-23T10:59:16.606Z,20.4
2023-01-23T11:00:18.852Z,20.7
2023-01-23T11:01:21.166Z,20.5
2023-01-23T11:02:24.014Z,20.5
2023-01-23T11:03:27.295Z,20.6
2023-01-23T11:04:29.544Z,20.5
2023-01-23T11:05:33.653Z,20.5
2023-01-23T11:06:37.067Z,20.6
2023-01-23T11:07:39.586Z,20.6
2023-01-23T11:08:42.226Z,20.6
2023-01-23T11:09:44.549Z,20.6
2023-01-23T11:10:46.795Z,20.7
2023-01-23T11:11:49.743Z,20.4
2023-01-23T11:12:51.966Z,20.6
2023-01-23T11:13:54.188Z,20.7
2023-01-23T11:14:56.140Z,20.6
2023-01-23T11:15:58.735Z,20.5
2023-01-23T11:17:01.616Z,20.6
2023-01-23T11:18:03.567Z,20.3
2023-01-23T11:19:05.900Z,20.6
2023-01-23T11:20:08.167Z,20.7
2023-01-23T11:21:09.839Z,20.7
2023-01-23T11:22:12.081Z,20.5
2023-01-23T11:23:14.187Z,20.6
2023-01-23T11:24:17.654Z,20.6
2023-01-23T11:25:23.174Z,20.6
2023-01-23T11:26:25.674Z,20.6
2023-01-23T11:27:28.646Z,20.5
2023-01-23T11:28:31.194Z,20.7
2023-01-23T11:29:33.946Z,20.6
2023-01-23T11:30:36.343Z,20.5
2023-01-23T11:31:39.764Z,20.5
2023-01-23T11:32:42.899Z,20.6
2023-01-23T11:33:45.451Z,20.5
2023-01-23T11:34:47.685Z,20.3
2023-01-23T11:35:50.214Z,20.6
2023-01-23T11:36:52.787Z,20.4
2023-01-23T11:37:55.592Z,20.5
2023-01-23T11:38:58.115Z,20.7
2023-01-23T11:40:00.795Z,20.7
2023-01-23T11:41:03.322Z,20.6
2023-01-23T11:42:05.857Z,20.4
2023-01-23T11:43:08.593Z,20.4
2023-01-23T11:44:12.968Z,20.6
2023-01-23T11:45:16.088Z,20.4
2023-01-23T11:46:17.937Z,20.5
2023-01-23T11:47:20.769Z,20.5
2023-01-23T11:48:23.285Z,20.5
2023-01-23T11:49:25.847Z,20.4
2023-01-23T11:50:28.407Z,20.8
2023-01-23T11:51:30.766Z,20.7
2023-01-23T11:52:33.435Z,20.5
2023-01-23T11:53:42.113Z,20.6
2023-01-23T11:54:40.647Z,20.5
2023-01-23T11:55:43.338Z,20.6
2023-01-23T11:56:45.273Z,20.4
2023-01-23T11:57:47.788Z,20.7
2023-01-23T11:58:51.134Z,20.6
2023-01-23T11:59:53.403Z,20.5
2023-01-23T12:00:55.908Z,20.5
2023-01-23T12:02:03.298Z,20.4
2023-01-23T12:03:03.510Z,20.5
2023-01-23T12:04:06.502Z,20.5
2023-01-23T12:05:09.393Z,20.4
2023-01-23T12:06:19.879Z,20.3
2023-01-23T12:07:16.938Z,20.5
2023-01-23T12:08:19.206Z,20.6
2023-01-23T12:09:21.476Z,20.5
2023-01-23T12:10:24.306Z,20.6
2023-01-23T12:11:28.005Z,20.5
2023-01-23T12:12:30.251Z,20.4
2023-01-23T12:13:32.514Z,20.4
2023-01-23T12:14:35.588Z,20.5
2023-01-23T12:15:38.328Z,20.5
2023-01-23T12:16:40.873Z,20.7
2023-01-23T12:17:43.238Z,20.5
2023-01-23T12:18:45.261Z,20.7
2023-01-23T12:19:47.523Z,20.5
2023-01-23T12:20:49.589Z,20.6
2023-01-23T12:21:51.580Z,20.8
2023-01-23T12:22:53.852Z,20.6
2023-01-23T12:23:56.119Z,20.6
2023-01-23T12:24:58.085Z,20.6
2023-01-23T12:26:00.603Z,20.5
2023-01-23T12:27:03.240Z,20.6
2023-01-23T12:28:05.797Z,20.6
2023-01-23T12:29:07.762Z,20.6
2023-01-23T12:30:10.376Z,20.6
2023-01-23T12:31:12.732Z,20.5
2023-01-23T12:32:15.988Z,20.5
2023-01-23T12:33:18.668Z,20.6
2023-01-23T12:34:21.235Z,20.6
2023-01-23T12:35:23.469Z,20.6
2023-01-23T12:36:27.946Z,20.5
2023-01-23T12:37:31.276Z,20.6
2023-01-23T12:38:33.938Z,20.6
2023-01-23T12:39:36.616Z,20.5
2023-01-23T12:40:39.518Z,20.5
2023-01-23T12:41:41.832Z,20.6
2023-01-23T12:42:44.205Z,20.8
2023-01-23T12:43:46.431Z,20.4
2023-01-23T12:44:49.038Z,20.5
2023-01-23T12:45:52.267Z,20.7
2023-01-23T12:46:54.814Z,20.6
2023-01-23T12:47:57.419Z,20.8
2023-01-23T12:49:02.920Z,20.8
2023-01-23T12:50:05.161Z,20.6
2023-01-23T12:51:08.391Z,20.5
2023-01-23T12:52:11.423Z,20.5
2023-01-23T12:53:13.398Z,20.5
2023-01-23T12:54:15.670Z,20.5
2023-01-23T12:55:18.784Z,20.4
2023-01-23T12:56:21.366Z,20.8
2023-01-23T12:57:27.302Z,20.5
2023-01-23T12:58:28.971Z,20.7
2023-01-23T12:59:31.500Z,20.6
2023-01-23T13:00:33.924Z,20.6
2023-01-23T13:01:37.351Z,20.8
2023-01-23T13:02:39.833Z,20.6
2023-01-23T13:03:46.194Z,20.6
2023-01-23T13:04:47.101Z,20.6
2023-01-23T13:05:49.719Z,20.4
2023-01-23T13:06:51.128Z,20.6
2023-01-23T13:07:53.078Z,20.5
2023-01-23T13:09:02.705Z,20.7
2023-01-23T13:10:00.146Z,20.7
2023-01-23T13:11:02.393Z,20.7
2023-01-23T13:12:04.094Z,20.5
2023-01-23T13:13:06.461Z,20.5
2023-01-23T13:14:08.859Z,20.6
2023-01-23T13:15:14.403Z,20.8
2023-01-23T13:16:16.455Z,20.6
2023-01-23T13:17:19.783Z,20.7
2023-01-23T13:18:22.053Z,20.6
2023-01-23T13:19:24.681Z,20.6
2023-01-23T13:20:27.330Z,20.7
2023-01-23T13:21:29.590Z,20.8
2023-01-23T13:22:32.721Z,20.5
2023-01-23T13:23:35.384Z,20.6
2023-01-23T13:24:37.947Z,20.5
2023-01-23T13:25:40.220Z,20.8
2023-01-23T13:26:42.384Z,20.8
2023-01-23T13:27:44.683Z,20.4
2023-01-23T13:28:46.956Z,20.6
2023-01-23T13:29:49.709Z,20.5
2023-01-23T13:30:51.997Z,20.6
2023-01-23T13:31:54.323Z,20.4
2023-01-23T13:32:57.883Z,20.7
2023-01-23T13:34:14.169Z,20.7
2023-01-23T13:35:05.053Z,20.7
2023-01-23T13:36:07.591Z,20.6
2023-01-23T13:37:09.891Z,20.7
2023-01-23T13:38:12.115Z,20.5
2023-01-23T13:39:14.338Z,20.5
2023-01-23T13:40:16.640Z,20.8
2023-01-23T13:41:18.667Z,20.6
2023-01-23T13:42:21.175Z,20.5
2023-01-23T13:43:23.448Z,20.6
2023-01-23T13:44:35.686Z,20.6
2023-01-23T13:45:31.111Z,20.5
2023-01-23T13:46:33.643Z,20.8
2023-01-23T13:47:35.976Z,20.4
2023-01-23T13:48:38.992Z,20.5
2023-01-23T13:49:41.567Z,20.5
2023-01-23T13:50:43.812Z,20.6
2023-01-23T13:51:46.488Z,20.7
2023-01-23T13:52:48.733Z,20.6
2023-01-23T13:53:51.264Z,20.7
2023-01-23T13:54:53.771Z,20.5
2023-01-23T13:55:56.510Z,20.5
2023-01-23T13:56:58.744Z,20.6
2023-01-23T13:58:00.984Z,20.9
2023-01-23T13:59:03.926Z,20.7